createdAt,value
2022-08-25T00:00:51.533Z,5.55
2022-08-25T00:06:14.790Z,5.25
2022-08-25T00:11:39.314Z,5.20
2022-08-25T00:17:02.027Z,6.00
2022-08-25T00:22:24.715Z,5.13
2022-08-25T00:27:48.228Z,5.15
2022-08-25T00:33:11.320Z,6.05
2022-08-25T00:38:33.788Z,5.60
2022-08-25T00:43:59.459Z,5.28
2022-08-25T00:49:31.925Z,5.32
2022-08-25T00:55:07.964Z,4.80
2022-08-25T01:00:37.851Z,5.70
2022-08-25T01:06:03.304Z,5.38
2022-08-25T01:11:25.586Z,5.20
2022-08-25T01:16:51.206Z,5.20
2022-08-25T01:22:17.458Z,5.78
2022-08-25T01:27:39.758Z,5.78
2022-08-25T01:33:07.701Z,5.93
2022-08-25T01:38:30.337Z,5.43
2022-08-25T01:43:53.016Z,5.80
2022-08-25T01:49:15.367Z,5.20
2022-08-25T01:54:38.084Z,5.43
2022-08-25T02:00:01.799Z,5.88
2022-08-25T02:05:33.282Z,5.20
2022-08-25T02:10:55.853Z,6.00
2022-08-25T02:16:24.747Z,6.32
2022-08-25T02:21:47.415Z,6.10
2022-08-25T02:27:10.810Z,5.72
2022-08-25T02:32:33.946Z,6.40
2022-08-25T02:37:56.503Z,5.60
2022-08-25T02:43:18.548Z,5.32
2022-08-25T02:48:41.655Z,6.03
2022-08-25T02:54:06.009Z,6.05
2022-08-25T02:59:28.868Z,6.35
2022-08-25T03:04:52.319Z,5.93
2022-08-25T03:10:19.799Z,5.55
2022-08-25T03:15:42.627Z,5.97
2022-08-25T03:21:05.267Z,6.03
2022-08-25T03:26:46.315Z,5.93
2022-08-25T03:32:09.294Z,6.10
2022-08-25T03:37:32.161Z,5.57
2022-08-25T03:42:56.944Z,6.45
2022-08-25T03:48:19.491Z,6.97
2022-08-25T03:53:41.995Z,6.68
2022-08-25T03:59:04.558Z,6.18
2022-08-25T04:04:27.084Z,5.88
2022-08-25T04:09:49.235Z,6.20
2022-08-25T04:15:11.917Z,6.07
2022-08-25T04:20:34.381Z,6.88
2022-08-25T04:25:56.789Z,6.65
2022-08-25T04:31:22.051Z,6.43
2022-08-25T04:36:44.880Z,6.45
2022-08-25T04:42:14.714Z,6.90
2022-08-25T04:47:39.018Z,7.18
2022-08-25T04:53:01.550Z,6.65
2022-08-25T04:58:23.758Z,7.75
2022-08-25T05:03:47.603Z,9.32
2022-08-25T05:09:10.847Z,10.07
2022-08-25T05:14:34.603Z,9.98
2022-08-25T05:19:57.001Z,11.05
2022-08-25T05:25:19.443Z,12.75
2022-08-25T05:30:44.445Z,11.88
2022-08-25T05:36:07.871Z,12.00
2022-08-25T05:41:31.201Z,11.55
2022-08-25T05:46:53.879Z,12.63
2022-08-25T05:52:20.151Z,12.15
2022-08-25T05:57:42.846Z,13.05
2022-08-25T06:03:05.153Z,13.02
2022-08-25T06:08:32.341Z,12.93
2022-08-25T06:13:55.427Z,14.70
2022-08-25T06:19:18.438Z,14.60
2022-08-25T06:24:41.043Z,13.82
2022-08-25T06:30:07.601Z,13.30
2022-08-25T06:35:30.715Z,13.73
2022-08-25T06:40:53.439Z,12.50
2022-08-25T06:46:19.981Z,11.40
2022-08-25T06:51:42.508Z,13.00
2022-08-25T06:57:06.126Z,11.85
2022-08-25T07:02:28.553Z,12.63
2022-08-25T07:07:52.135Z,12.13
2022-08-25T07:13:14.442Z,11.30
2022-08-25T07:18:37.190Z,10.93
2022-08-25T07:24:01.807Z,10.73
2022-08-25T07:29:31.885Z,9.60
2022-08-25T07:35:13.979Z,10.43
2022-08-25T07:40:42.572Z,10.50
2022-08-25T07:46:06.783Z,9.73
2022-08-25T07:51:29.241Z,9.15
2022-08-25T07:56:51.544Z,9.00
2022-08-25T08:02:18.832Z,8.98
2022-08-25T08:07:43.751Z,9.88
2022-08-25T08:13:07.962Z,9.45
2022-08-25T08:18:30.535Z,8.95
2022-08-25T08:23:58.689Z,8.70
2022-08-25T08:29:22.860Z,9.35
2022-08-25T08:34:46.238Z,8.10
2022-08-25T08:40:09.726Z,9.02
2022-08-25T08:45:50.396Z,8.85
2022-08-25T08:51:26.077Z,7.90
2022-08-25T08:57:11.812Z,8.07
2022-08-25T09:02:51.342Z,7.90
2022-08-25T09:08:20.179Z,8.27
2022-08-25T09:14:04.499Z,7.50
2022-08-25T09:19:55.035Z,8.07
2022-08-25T09:25:52.764Z,7.72
2022-08-25T09:31:26.450Z,7.45
2022-08-25T09:36:53.516Z,7.07
2022-08-25T09:42:21.983Z,6.82
2022-08-25T09:47:46.623Z,7.00
2022-08-25T09:53:17.196Z,6.28
2022-08-25T09:58:41.719Z,6.63
2022-08-25T10:04:06.262Z,6.72
2022-08-25T10:09:43.555Z,6.13
2022-08-25T10:15:29.383Z,6.65
2022-08-25T10:21:07.758Z,6.15
2022-08-25T10:26:57.062Z,5.80
2022-08-25T10:32:37.838Z,5.78
2022-08-25T10:38:36.379Z,5.90
2022-08-25T10:44:36.767Z,5.97
2022-08-25T10:50:32.969Z,6.25
2022-08-25T10:55:55.336Z,6.40
2022-08-25T11:01:42.894Z,5.93
2022-08-25T11:07:15.823Z,5.97
2022-08-25T11:12:50.472Z,6.00
2022-08-25T11:18:15.173Z,5.93
2022-08-25T11:24:09.244Z,6.07
2022-08-25T11:29:36.864Z,6.07
2022-08-25T11:35:05.602Z,6.38
2022-08-25T11:40:46.538Z,5.78
2022-08-25T11:46:27.796Z,5.53
2022-08-25T11:51:51.756Z,5.63
2022-08-25T11:57:17.006Z,5.78
2022-08-25T12:02:47.576Z,5.05
2022-08-25T12:08:28.067Z,5.20
2022-08-25T12:13:51.859Z,5.80
2022-08-25T12:19:36.976Z,6.13
2022-08-25T12:25:22.007Z,5.47
2022-08-25T12:30:56.657Z,5.78
2022-08-25T12:36:34.412Z,5.57
2022-08-25T12:42:06.796Z,6.20
2022-08-25T12:47:34.140Z,6.53
2022-08-25T12:53:02.651Z,5.40
2022-08-25T12:58:56.623Z,6.53
2022-08-25T13:04:35.518Z,5.55
2022-08-25T13:10:17.827Z,5.70
2022-08-25T13:15:47.055Z,6.47
2022-08-25T13:21:24.334Z,6.05
2022-08-25T13:26:50.975Z,5.70
2022-08-25T13:32:14.821Z,5.68
2022-08-25T13:37:37.359Z,5.68
2022-08-25T13:43:05.587Z,5.43
2022-08-25T13:48:32.503Z,5.20
2022-08-25T13:53:59.093Z,5.47
2022-08-25T13:59:40.086Z,5.60
2022-08-25T14:05:03.315Z,5.35
2022-08-25T14:10:44.539Z,5.18
2022-08-25T14:16:14.280Z,5.28
2022-08-25T14:21:36.987Z,5.85
2022-08-25T14:27:04.687Z,5.57
2022-08-25T14:32:27.304Z,4.57
2022-08-25T14:37:49.691Z,5.28
2022-08-25T14:43:12.321Z,5.72
2022-08-25T14:48:40.962Z,4.90
2022-08-25T14:54:09.498Z,6.38
2022-08-25T14:59:33.530Z,6.07
2022-08-25T15:05:00.133Z,4.68
2022-08-25T15:10:24.081Z,5.10
2022-08-25T15:15:52.883Z,5.28
2022-08-25T15:21:15.436Z,5.38
2022-08-25T15:27:11.119Z,4.97
2022-08-25T15:32:33.932Z,5.40
2022-08-25T15:37:56.607Z,5.60
2022-08-25T15:43:19.081Z,5.50
2022-08-25T15:48:42.464Z,5.50
2022-08-25T15:54:05.595Z,5.30
2022-08-25T15:59:29.066Z,7.55
2022-08-25T16:04:53.076Z,5.35
2022-08-25T16:10:15.832Z,5.57
2022-08-25T16:15:38.909Z,7.43
2022-08-25T16:21:01.330Z,6.97
2022-08-25T16:26:24.368Z,5.80
2022-08-25T16:31:53.527Z,6.53
2022-08-25T16:37:17.673Z,6.45
2022-08-25T16:42:39.814Z,6.13
2022-08-25T16:48:03.680Z,7.05
2022-08-25T16:53:44.939Z,7.07
2022-08-25T16:59:12.278Z,6.18
2022-08-25T17:04:35.163Z,6.90
2022-08-25T17:09:59.997Z,5.68
2022-08-25T17:15:23.977Z,6.07
2022-08-25T17:20:46.492Z,6.22
2022-08-25T17:26:14.721Z,7.07
2022-08-25T17:31:40.217Z,6.22
2022-08-25T17:37:03.775Z,6.55
2022-08-25T17:42:30.405Z,6.15
2022-08-25T17:47:53.639Z,6.70
2022-08-25T17:53:17.409Z,6.93
2022-08-25T17:58:41.394Z,6.90
2022-08-25T18:04:06.370Z,6.90
2022-08-25T18:09:39.691Z,6.82
2022-08-25T18:15:02.817Z,7.07
2022-08-25T18:20:25.851Z,7.07
2022-08-25T18:25:50.099Z,8.10
2022-08-25T18:31:13.230Z,7.68
2022-08-25T18:36:38.573Z,8.05
2022-08-25T18:42:02.256Z,7.95
2022-08-25T18:47:25.127Z,8.00
2022-08-25T18:52:47.907Z,8.15
2022-08-25T18:58:11.452Z,8.23
2022-08-25T19:03:34.527Z,8.38
2022-08-25T19:08:57.170Z,8.07
2022-08-25T19:14:21.379Z,8.35
2022-08-25T19:19:43.567Z,8.63
2022-08-25T19:25:07.448Z,8.45
2022-08-25T19:30:30.526Z,8.95
2022-08-25T19:35:55.073Z,8.38
2022-08-25T19:41:19.634Z,8.65
2022-08-25T19:46:44.889Z,10.20
2022-08-25T19:52:10.497Z,9.00
2022-08-25T19:57:42.310Z,9.30
2022-08-25T20:03:07.671Z,9.10
2022-08-25T20:08:30.344Z,10.40
2022-08-25T20:13:53.733Z,10.07
2022-08-25T20:19:16.165Z,11.00
2022-08-25T20:24:56.086Z,10.90
2022-08-25T20:30:27.096Z,10.45
2022-08-25T20:35:49.851Z,11.10
2022-08-25T20:41:15.614Z,10.73
2022-08-25T20:46:38.190Z,11.65
2022-08-25T20:52:04.549Z,10.55
2022-08-25T20:57:26.751Z,12.20
2022-08-25T21:02:50.960Z,11.35
2022-08-25T21:08:13.574Z,11.30
2022-08-25T21:13:36.227Z,12.02
2022-08-25T21:19:00.540Z,11.15
2022-08-25T21:24:24.322Z,11.75
2022-08-25T21:29:54.735Z,11.20
2022-08-25T21:35:17.667Z,11.45
2022-08-25T21:40:44.889Z,11.38
2022-08-25T21:46:12.246Z,11.05
2022-08-25T21:51:43.397Z,11.25
2022-08-25T21:57:06.616Z,11.48
2022-08-25T22:02:28.786Z,10.60
2022-08-25T22:07:51.137Z,12.25
2022-08-25T22:13:14.759Z,12.20
2022-08-25T22:18:37.043Z,11.18
2022-08-25T22:24:00.855Z,11.18
2022-08-25T22:29:25.343Z,11.20
2022-08-25T22:34:48.547Z,10.85
2022-08-25T22:40:12.026Z,11.85
2022-08-25T22:45:35.889Z,11.00
2022-08-25T22:51:10.106Z,10.85
2022-08-25T22:56:37.776Z,10.43
2022-08-25T23:02:00.711Z,11.13
2022-08-25T23:07:24.086Z,10.45
2022-08-25T23:12:46.895Z,10.80
2022-08-25T23:18:09.411Z,9.70
2022-08-25T23:23:36.251Z,10.57
2022-08-25T23:28:59.859Z,10.32
2022-08-25T23:34:23.257Z,9.75
2022-08-25T23:39:46.367Z,10.38
2022-08-25T23:45:13.345Z,10.05
2022-08-25T23:50:44.900Z,9.63
2022-08-25T23:56:07.679Z,10.45
